Time;durP1;ratioP1;P1;durP2;ratioP2;P2;SDS_P1;SDS_P2;PMS_P1;PMS_P2;Temp;Humidity;BMP_temperature;BMP_pressure;BME280_temperature;BME280_humidity;BME280_pressure;Samples;Min_cycle;Max_cycle;Signal;HPM_P1;HPM_P2
2023/04/29 00:02:07;;;;;;;21.20;11.50;;;;;;;12.40;54.79;99918.05;129577;1280;114755;-63
2023/04/29 00:05:11;;;;;;;18.60;11.60;;;;;;;12.39;54.84;99916.88;129686;1265;128838;-64
2023/04/29 00:08:13;;;;;;;17.30;11.60;;;;;;;12.39;54.94;99908.86;129632;1263;114819;-65
2023/04/29 00:11:16;;;;;;;19.70;11.20;;;;;;;12.37;55.05;99911.10;129846;1261;114699;-64
2023/04/29 00:14:18;;;;;;;16.30;11.30;;;;;;;12.35;54.99;99907.63;129581;1277;114776;-63
2023/04/29 00:17:21;;;;;;;13.70;10.10;;;;;;;12.35;55.03;99908.20;129595;1271;114743;-64
2023/04/29 00:20:24;;;;;;;19.50;11.40;;;;;;;12.34;55.14;99905.74;129570;1281;114739;-64
2023/04/29 00:23:27;;;;;;;18.90;11.20;;;;;;;12.31;55.18;99905.20;129480;1280;114734;-63
2023/04/29 00:26:29;;;;;;;22.40;12.80;;;;;;;12.28;54.88;99901.61;129575;1280;114758;-64
2023/04/29 00:29:35;;;;;;;28.00;13.50;;;;;;;12.25;55.33;99903.39;129529;1261;114769;-63
2023/04/29 00:32:38;;;;;;;25.30;13.40;;;;;;;12.22;55.15;99905.77;129665;1261;114818;-63
2023/04/29 00:35:40;;;;;;;19.40;12.00;;;;;;;12.18;55.13;99906.01;129654;1280;114723;-63
2023/04/29 00:38:45;;;;;;;19.60;12.80;;;;;;;12.17;55.62;99903.54;129629;1280;115090;-63
2023/04/29 00:41:48;;;;;;;17.60;12.30;;;;;;;12.15;55.59;99902.96;129442;1280;114979;-63
2023/04/29 00:44:50;;;;;;;21.60;12.00;;;;;;;12.13;55.42;99897.73;129476;1280;114769;-63
2023/04/29 00:47:53;;;;;;;18.50;12.20;;;;;;;12.10;55.76;99896.32;129650;1264;114726;-63
2023/04/29 00:50:55;;;;;;;21.20;13.30;;;;;;;12.06;56.02;99890.66;129573;1261;114817;-63
2023/04/29 00:53:57;;;;;;;18.30;12.40;;;;;;;12.00;56.04;99889.73;129262;1266;114903;-63
2023/04/29 00:57:01;;;;;;;20.50;12.70;;;;;;;11.94;56.10;99887.25;129565;1271;114718;-63
2023/04/29 01:00:04;;;;;;;14.60;8.50;;;;;;;11.89;56.09;99887.37;129297;1274;116517;-63
2023/04/29 01:03:08;;;;;;;20.20;13.10;;;;;;;11.84;56.31;99883.34;129392;1277;114798;-63
2023/04/29 01:06:22;;;;;;;20.20;12.80;;;;;;;11.82;56.37;99880.25;129307;1263;115251;-63
2023/04/29 01:09:36;;;;;;;19.60;11.60;;;;;;;11.79;56.75;99878.49;129337;1264;114728;-63
2023/04/29 01:12:49;;;;;;;22.20;12.80;;;;;;;11.72;56.55;99873.17;129420;1258;114714;-63
2023/04/29 01:16:05;;;;;;;16.70;11.90;;;;;;;11.68;56.86;99874.84;129396;1274;114925;-64
2023/04/29 01:19:19;;;;;;;19.90;11.60;;;;;;;11.66;56.79;99871.59;129399;1281;127877;-63
2023/04/29 01:22:22;;;;;;;21.80;8.60;;;;;;;11.62;56.90;99872.52;129062;1280;326473;-63
2023/04/29 01:25:24;;;;;;;19.90;12.00;;;;;;;11.59;56.79;99872.38;129452;1261;114773;-63
2023/04/29 01:28:49;;;;;;;21.60;12.50;;;;;;;11.57;56.65;99871.42;129490;1277;114736;-63
2023/04/29 01:32:02;;;;;;;23.10;12.90;;;;;;;11.56;56.91;99872.56;129392;1271;114743;-62
2023/04/29 01:35:18;;;;;;;18.90;11.40;;;;;;;11.51;56.93;99873.89;129425;1280;128847;-63
2023/04/29 01:38:43;;;;;;;21.70;12.60;;;;;;;11.49;57.05;99870.46;129498;1280;115152;-63
2023/04/29 01:42:00;;;;;;;21.10;11.50;;;;;;;11.46;57.30;99875.65;129482;1280;114897;-63
2023/04/29 01:45:06;;;;;;;22.30;12.60;;;;;;;11.44;57.39;99876.16;129391;1271;114711;-63
2023/04/29 01:48:09;;;;;;;21.60;13.00;;;;;;;11.40;57.38;99875.48;129462;1280;114807;-63
2023/04/29 01:51:11;;;;;;;20.10;12.60;;;;;;;11.38;57.43;99875.23;129417;1281;114801;-63
2023/04/29 01:54:13;;;;;;;17.60;12.40;;;;;;;11.35;57.66;99878.95;129355;1280;114737;-63
2023/04/29 01:57:15;;;;;;;22.00;12.90;;;;;;;11.30;57.68;99879.98;129508;1280;114789;-63
2023/04/29 02:00:18;;;;;;;20.90;11.20;;;;;;;11.26;57.78;99880.02;129413;1258;114881;-63
2023/04/29 02:03:20;;;;;;;19.70;11.50;;;;;;;11.25;57.69;99882.08;129500;1261;114759;-63
2023/04/29 02:06:23;;;;;;;19.30;11.80;;;;;;;11.24;57.72;99880.34;129378;1281;114795;-62
2023/04/29 02:09:25;;;;;;;23.30;12.80;;;;;;;11.23;57.89;99880.23;129564;1281;114779;-63
2023/04/29 02:12:28;;;;;;;23.80;11.30;;;;;;;11.21;57.87;99879.83;129407;1281;127414;-63
2023/04/29 02:15:30;;;;;;;18.80;10.80;;;;;;;11.18;57.95;99874.77;129584;1280;114817;-63
2023/04/29 02:18:32;;;;;;;21.00;11.80;;;;;;;11.17;58.00;99872.55;129529;1279;114782;-64
2023/04/29 02:21:34;;;;;;;22.80;11.90;;;;;;;11.15;58.18;99876.27;129272;1264;114771;-64
2023/04/29 02:24:37;;;;;;;22.60;11.30;;;;;;;11.11;58.00;99871.79;129478;1263;114758;-64
2023/04/29 02:27:40;;;;;;;20.70;11.60;;;;;;;11.09;58.51;99870.70;129497;1263;114711;-63
2023/04/29 02:30:42;;;;;;;25.60;10.80;;;;;;;11.06;58.07;99869.42;129581;1261;114792;-63
2023/04/29 02:33:45;;;;;;;18.80;11.60;;;;;;;11.03;58.57;99864.92;129396;1281;129085;-63
2023/04/29 02:36:47;;;;;;;14.40;10.00;;;;;;;11.02;58.37;99866.43;129564;1264;115224;-63
2023/04/29 02:39:49;;;;;;;17.30;11.10;;;;;;;11.01;58.75;99868.82;129464;1271;115427;-63
2023/04/29 02:42:51;;;;;;;14.60;10.50;;;;;;;10.99;58.58;99866.42;129471;1265;114699;-62
2023/04/29 02:45:59;;;;;;;15.10;10.20;;;;;;;10.97;58.97;99864.77;129475;1262;114851;-63
2023/04/29 02:49:02;;;;;;;13.60;10.50;;;;;;;10.95;58.92;99865.23;129473;1265;114720;-62
2023/04/29 02:52:04;;;;;;;19.20;10.30;;;;;;;10.93;58.67;99864.59;129265;1267;128197;-63
2023/04/29 02:55:08;;;;;;;18.90;9.80;;;;;;;10.92;59.03;99864.67;129451;1264;115240;-65
2023/04/29 02:58:10;;;;;;;17.10;10.10;;;;;;;10.92;59.02;99863.77;129465;1257;114714;-62
2023/04/29 03:01:12;;;;;;;17.10;10.20;;;;;;;10.94;59.06;99861.37;129474;1264;114737;-64
2023/04/29 03:04:14;;;;;;;17.40;10.20;;;;;;;10.95;58.91;99854.14;129546;1271;114714;-63
2023/04/29 03:07:17;;;;;;;18.10;10.60;;;;;;;10.97;59.18;99853.34;129376;1272;114855;-62
2023/04/29 03:10:19;;;;;;;18.00;10.80;;;;;;;10.98;59.39;99849.71;129567;1281;114869;-63
2023/04/29 03:13:22;;;;;;;14.50;10.90;;;;;;;10.99;59.33;99841.24;129322;1264;114794;-64
2023/04/29 03:16:24;;;;;;;16.20;10.30;;;;;;;11.00;59.22;99840.34;129461;1264;114747;-65
2023/04/29 03:19:26;;;;;;;17.90;10.70;;;;;;;11.00;59.34;99837.23;129383;1271;115118;-63
2023/04/29 03:22:28;;;;;;;17.00;11.20;;;;;;;10.98;59.58;99835.23;129489;1258;114652;-64
2023/04/29 03:25:30;;;;;;;25.00;11.80;;;;;;;10.97;59.50;99838.88;129456;1281;114829;-63
2023/04/29 03:28:32;;;;;;;17.90;10.60;;;;;;;10.97;59.55;99834.23;129236;1272;114909;-64
2023/04/29 03:31:34;;;;;;;16.30;10.70;;;;;;;10.99;59.94;99833.77;129370;1261;114873;-64
2023/04/29 03:34:37;;;;;;;22.10;11.10;;;;;;;10.99;59.76;99834.63;129516;1257;115666;-65
2023/04/29 03:37:39;;;;;;;16.70;10.90;;;;;;;10.98;59.90;99832.54;129417;1281;115258;-63
2023/04/29 03:40:42;;;;;;;19.70;11.70;;;;;;;10.97;60.04;99832.05;129535;1261;116574;-64
2023/04/29 03:43:44;;;;;;;17.90;11.00;;;;;;;10.95;59.78;99831.83;129433;1272;115321;-64
2023/04/29 03:46:46;;;;;;;19.40;11.60;;;;;;;10.94;60.05;99828.30;129512;1281;114762;-64
2023/04/29 03:49:49;;;;;;;19.00;10.80;;;;;;;10.95;60.15;99825.38;129418;1265;114847;-62
2023/04/29 03:52:51;;;;;;;20.40;11.20;;;;;;;10.96;60.06;99827.14;129482;1263;114893;-63
2023/04/29 03:55:55;;;;;;;17.80;10.50;;;;;;;10.95;60.48;99823.42;129454;1274;114835;-66
2023/04/29 03:58:57;;;;;;;19.90;10.90;;;;;;;10.95;60.39;99819.48;129381;1281;114847;-65
2023/04/29 04:01:59;;;;;;;17.60;10.90;;;;;;;10.94;60.57;99823.31;129502;1261;114825;-65
2023/04/29 04:05:02;;;;;;;16.20;11.60;;;;;;;10.92;60.61;99817.16;129527;1264;115311;-65
2023/04/29 04:08:05;;;;;;;14.90;10.30;;;;;;;10.89;60.77;99819.87;129475;1273;115184;-64
2023/04/29 04:11:08;;;;;;;20.60;11.20;;;;;;;10.84;60.70;99822.10;129436;1275;114820;-64
2023/04/29 04:14:10;;;;;;;16.00;10.70;;;;;;;10.83;60.71;99827.02;129524;1270;115154;-63
2023/04/29 04:17:13;;;;;;;20.40;11.40;;;;;;;10.82;61.05;99827.97;129781;1261;114747;-64
2023/04/29 04:20:18;;;;;;;22.60;11.90;;;;;;;10.83;61.16;99834.11;129487;1271;114894;-64
2023/04/29 04:23:21;;;;;;;17.70;10.70;;;;;;;10.87;61.05;99841.39;129545;1281;114879;-65
2023/04/29 04:26:23;;;;;;;19.40;12.50;;;;;;;10.93;61.45;99845.53;129469;1262;114773;-65
2023/04/29 04:29:26;;;;;;;16.90;10.70;;;;;;;10.99;61.45;99841.23;129513;1264;114804;-66
2023/04/29 04:32:28;;;;;;;19.50;11.50;;;;;;;11.04;61.30;99841.48;129383;1281;128997;-65
2023/04/29 04:35:31;;;;;;;14.20;10.90;;;;;;;11.06;61.25;99844.92;129440;1262;114779;-65
2023/04/29 04:38:33;;;;;;;18.80;10.90;;;;;;;11.10;61.48;99843.63;129487;1266;114727;-65
2023/04/29 04:41:35;;;;;;;15.90;11.00;;;;;;;11.14;61.43;99842.31;129554;1263;114743;-64
2023/04/29 04:44:37;;;;;;;15.20;10.30;;;;;;;11.19;61.31;99843.13;129198;1264;114842;-65
2023/04/29 04:47:40;;;;;;;16.60;11.10;;;;;;;11.24;61.39;99838.31;129701;1264;114816;-66
2023/04/29 04:50:43;;;;;;;17.60;10.90;;;;;;;11.33;61.09;99830.98;129653;1264;114784;-63
2023/04/29 04:53:45;;;;;;;19.60;10.80;;;;;;;11.45;61.41;99824.39;129479;1271;114720;-63
2023/04/29 04:56:47;;;;;;;16.30;10.50;;;;;;;11.60;61.59;99824.91;129591;1281;114770;-63
2023/04/29 04:59:50;;;;;;;20.20;10.30;;;;;;;11.77;61.44;99824.07;129368;1276;114752;-64
2023/04/29 05:02:52;;;;;;;14.00;9.90;;;;;;;11.89;60.94;99819.54;129510;1263;114742;-64
2023/04/29 05:05:59;;;;;;;20.60;10.00;;;;;;;11.94;61.29;99811.73;129369;1281;114947;-63
2023/04/29 05:09:02;;;;;;;19.40;9.80;;;;;;;12.03;61.20;99809.20;129235;1258;127531;-63
2023/04/29 05:12:05;;;;;;;17.00;10.70;;;;;;;12.13;60.58;99806.27;129397;1264;114898;-64
2023/04/29 05:15:07;;;;;;;13.90;9.70;;;;;;;12.17;60.73;99813.86;129625;1257;115330;-64
2023/04/29 05:18:10;;;;;;;11.70;9.00;;;;;;;12.26;60.84;99819.41;129571;1257;115223;-63
2023/04/29 05:21:12;;;;;;;16.80;9.80;;;;;;;12.37;61.14;99821.38;129400;1263;114849;-64
2023/04/29 05:24:14;;;;;;;15.00;9.70;;;;;;;12.50;60.77;99826.25;129424;1264;114769;-65
2023/04/29 05:27:17;;;;;;;14.00;9.30;;;;;;;12.66;60.74;99825.04;129373;1280;129155;-64
2023/04/29 05:30:21;;;;;;;13.90;9.20;;;;;;;12.88;60.74;99827.73;129512;1257;114713;-64
2023/04/29 05:33:23;;;;;;;17.10;9.90;;;;;;;13.12;60.32;99828.44;129473;1262;114780;-65
2023/04/29 05:36:26;;;;;;;14.60;10.10;;;;;;;13.37;60.32;99829.27;129395;1264;114696;-65
2023/04/29 05:39:28;;;;;;;13.50;9.60;;;;;;;13.60;59.92;99825.58;129454;1272;114631;-65
2023/04/29 05:42:31;;;;;;;14.50;10.30;;;;;;;13.80;59.86;99824.01;129523;1273;114854;-67
2023/04/29 05:45:33;;;;;;;16.20;10.40;;;;;;;14.03;59.82;99821.28;129579;1269;128943;-66
2023/04/29 05:48:35;;;;;;;12.80;8.30;;;;;;;14.24;59.57;99819.05;129408;1264;116475;-66
2023/04/29 05:51:38;;;;;;;17.00;8.90;;;;;;;14.47;59.33;99820.80;129476;1281;114719;-65
2023/04/29 05:54:40;;;;;;;12.30;9.60;;;;;;;14.74;58.87;99823.01;129241;1267;114918;-65
2023/04/29 05:57:43;;;;;;;14.70;10.00;;;;;;;15.15;58.79;99819.01;129549;1261;114711;-65
2023/04/29 06:00:48;;;;;;;14.30;8.80;;;;;;;15.57;58.61;99820.30;129654;1261;114722;-65
2023/04/29 06:03:51;;;;;;;13.70;9.90;;;;;;;16.02;57.87;99819.69;129559;1281;114753;-65
2023/04/29 06:06:56;;;;;;;13.70;9.00;;;;;;;16.67;58.00;99820.89;129694;1264;114793;-65
2023/04/29 06:09:59;;;;;;;11.80;8.40;;;;;;;17.72;57.55;99817.29;129681;1263;114702;-65
2023/04/29 06:13:01;;;;;;;14.60;8.50;;;;;;;18.59;55.87;99811.80;129698;1260;115385;-65
2023/04/29 06:16:04;;;;;;;12.50;7.70;;;;;;;18.84;54.47;99814.60;129890;1271;115171;-64
2023/04/29 06:19:06;;;;;;;10.70;7.50;;;;;;;18.88;54.07;99814.06;129698;1258;114825;-67
2023/04/29 06:22:08;;;;;;;10.50;8.10;;;;;;;18.95;53.92;99812.48;129646;1264;114784;-66
2023/04/29 06:25:12;;;;;;;12.90;7.90;;;;;;;19.01;53.36;99812.88;129762;1256;116400;-67
2023/04/29 06:28:15;;;;;;;14.60;8.50;;;;;;;18.94;52.95;99813.09;129681;1257;114777;-67
2023/04/29 06:31:17;;;;;;;11.20;7.60;;;;;;;18.84;52.59;99822.35;129691;1260;114817;-68
2023/04/29 06:34:20;;;;;;;12.20;7.20;;;;;;;18.72;52.59;99827.27;129630;1258;114745;-67
2023/04/29 06:37:22;;;;;;;11.10;7.80;;;;;;;18.58;52.23;99827.42;129950;1260;114741;-64
2023/04/29 06:40:24;;;;;;;9.20;6.90;;;;;;;18.38;52.12;99829.23;129561;1260;114795;-65
2023/04/29 06:43:27;;;;;;;10.80;7.20;;;;;;;18.23;52.29;99830.04;129596;1263;114758;-67
2023/04/29 06:46:29;;;;;;;13.00;7.70;;;;;;;18.12;52.31;99832.98;129726;1281;114733;-65
2023/04/29 06:49:32;;;;;;;11.60;8.10;;;;;;;17.98;52.15;99838.04;129943;1257;114773;-64
2023/04/29 06:52:34;;;;;;;13.00;8.20;;;;;;;17.80;52.17;99835.63;129500;1271;114745;-64
2023/04/29 06:55:36;;;;;;;15.50;8.70;;;;;;;17.61;52.35;99837.27;129509;1280;115194;-64
2023/04/29 06:58:39;;;;;;;14.80;8.80;;;;;;;17.44;52.37;99836.89;129529;1263;114644;-65
2023/04/29 07:01:41;;;;;;;16.30;8.80;;;;;;;17.22;52.49;99836.53;129432;1276;129022;-63
2023/04/29 07:04:43;;;;;;;12.90;8.50;;;;;;;17.09;52.57;99836.02;129192;1273;114774;-65
2023/04/29 07:07:46;;;;;;;13.40;8.50;;;;;;;17.00;52.89;99840.17;129429;1261;115275;-63
2023/04/29 07:10:56;;;;;;;15.70;8.60;;;;;;;16.92;52.97;99838.27;129524;1256;114801;-63
2023/04/29 07:13:58;;;;;;;15.60;8.70;;;;;;;16.88;53.12;99835.39;129434;1261;114924;-65
2023/04/29 07:17:01;;;;;;;11.30;8.80;;;;;;;16.80;53.10;99836.42;129590;1277;114819;-62
2023/04/29 07:20:04;;;;;;;13.50;8.80;;;;;;;16.71;53.21;99836.21;129428;1274;114788;-62
2023/04/29 07:23:06;;;;;;;11.50;9.00;;;;;;;16.68;53.54;99838.34;129575;1261;114772;-67
2023/04/29 07:26:15;;;;;;;12.90;9.70;;;;;;;16.63;54.21;99842.73;129995;1260;115194;-62
2023/04/29 07:29:17;;;;;;;16.30;10.10;;;;;;;16.59;54.50;99847.55;129312;1261;114760;-66
2023/04/29 07:32:19;;;;;;;13.60;10.10;;;;;;;16.55;55.06;99850.54;129589;1258;114733;-62
2023/04/29 07:35:21;;;;;;;13.30;9.90;;;;;;;16.50;55.28;99850.62;129469;1261;114830;-63
2023/04/29 07:38:24;;;;;;;12.50;10.60;;;;;;;16.46;55.75;99853.45;129500;1272;114808;-66
2023/04/29 07:41:27;;;;;;;15.30;10.90;;;;;;;16.43;56.29;99846.86;129395;1261;128808;-64
2023/04/29 07:44:29;;;;;;;17.40;11.00;;;;;;;16.38;56.60;99847.63;129542;1261;114708;-65
2023/04/29 07:47:31;;;;;;;12.70;10.00;;;;;;;16.31;56.58;99850.71;129535;1261;115290;-64
2023/04/29 07:50:35;;;;;;;15.10;12.00;;;;;;;16.19;56.86;99852.40;129392;1263;114790;-64
2023/04/29 07:53:40;;;;;;;17.90;12.40;;;;;;;16.11;57.33;99853.19;129243;1261;115064;-64
2023/04/29 07:56:46;;;;;;;15.70;12.10;;;;;;;16.06;58.00;99850.54;129242;1277;114906;-65
2023/04/29 07:59:54;;;;;;;23.00;13.20;;;;;;;16.02;57.93;99858.77;129482;1260;114786;-65
2023/04/29 08:02:56;;;;;;;16.60;13.30;;;;;;;15.97;58.42;99856.47;129548;1276;115284;-66
2023/04/29 08:06:03;;;;;;;15.30;11.20;;;;;;;15.93;58.90;99853.55;129236;1263;115653;-65
2023/04/29 08:09:05;;;;;;;18.30;11.60;;;;;;;15.85;59.16;99854.65;129482;1258;115276;-66
2023/04/29 08:12:08;;;;;;;16.00;11.60;;;;;;;15.82;59.45;99854.88;129452;1261;114796;-66
2023/04/29 08:15:10;;;;;;;19.90;13.20;;;;;;;15.77;59.53;99853.51;129489;1264;114645;-66
2023/04/29 08:18:12;;;;;;;13.40;11.50;;;;;;;15.69;59.88;99851.55;129712;1257;114709;-73
2023/04/29 08:21:15;;;;;;;19.60;13.40;;;;;;;15.62;60.11;99856.64;129975;1261;115188;-63
2023/04/29 08:24:17;;;;;;;16.90;13.00;;;;;;;15.51;60.15;99860.55;129373;1261;114711;-65
2023/04/29 08:27:20;;;;;;;18.20;12.10;;;;;;;15.41;60.53;99863.11;129646;1258;115087;-64
2023/04/29 08:30:23;;;;;;;17.20;12.50;;;;;;;15.32;60.58;99864.70;129576;1264;114933;-64
2023/04/29 08:33:25;;;;;;;18.20;13.60;;;;;;;15.22;61.00;99871.92;129590;1261;114709;-66
2023/04/29 08:36:28;;;;;;;19.90;13.00;;;;;;;15.13;61.11;99873.33;129636;1261;114816;-66
2023/04/29 08:39:31;;;;;;;18.10;13.60;;;;;;;15.05;61.61;99878.26;129607;1262;114739;-65
2023/04/29 08:42:35;;;;;;;27.00;17.60;;;;;;;14.97;61.88;99878.48;129626;1257;114823;-64
2023/04/29 08:45:39;;;;;;;27.00;17.10;;;;;;;14.87;62.15;99880.11;129351;1264;114756;-66
2023/04/29 08:48:42;;;;;;;20.90;16.00;;;;;;;14.79;62.62;99883.41;129512;1264;114791;-64
2023/04/29 08:51:44;;;;;;;23.40;16.50;;;;;;;14.72;62.96;99883.87;129508;1264;114721;-66
2023/04/29 08:54:46;;;;;;;19.50;14.30;;;;;;;14.69;63.47;99887.34;129366;1276;114923;-65
2023/04/29 08:57:49;;;;;;;25.30;15.60;;;;;;;14.67;63.61;99885.67;129334;1280;128746;-66
2023/04/29 09:00:52;;;;;;;25.50;16.60;;;;;;;14.65;63.93;99886.50;129408;1273;115527;-66
2023/04/29 09:04:26;;;;;;;19.80;15.80;;;;;;;14.67;64.26;99890.68;129375;1259;115336;-64
2023/04/29 09:07:30;;;;;;;20.20;16.30;;;;;;;14.69;64.55;99893.27;129371;1264;114873;-66
2023/04/29 09:10:32;;;;;;;19.90;16.20;;;;;;;14.70;64.96;99899.29;129357;1264;114862;-63
2023/04/29 09:13:35;;;;;;;24.60;17.00;;;;;;;14.75;65.20;99902.38;129465;1276;116100;-65
2023/04/29 09:16:37;;;;;;;23.20;16.20;;;;;;;14.81;65.54;99901.03;129403;1261;115179;-65
2023/04/29 09:19:40;;;;;;;20.00;14.80;;;;;;;14.91;66.04;99901.21;129479;1261;114682;-67
2023/04/29 09:23:02;;;;;;;18.00;13.80;;;;;;;15.05;66.28;99903.79;129422;1261;114726;-65
2023/04/29 09:26:04;;;;;;;16.10;14.10;;;;;;;15.25;66.51;99907.28;129295;1264;115006;-68
2023/04/29 09:29:15;;;;;;;16.30;13.40;;;;;;;15.50;67.10;99901.63;129291;1261;115268;-64
2023/04/29 09:32:20;;;;;;;15.20;12.50;;;;;;;15.86;67.44;99898.34;129396;1260;128612;-63
2023/04/29 09:35:28;;;;;;;17.90;11.90;;;;;;;16.22;67.30;99894.81;129410;1260;115242;-65
2023/04/29 09:38:30;;;;;;;15.90;13.00;;;;;;;16.57;67.19;99898.49;129447;1264;114874;-66
2023/04/29 09:41:32;;;;;;;15.40;13.10;;;;;;;16.96;67.14;99897.14;129648;1272;115473;-66
2023/04/29 09:44:40;;;;;;;19.80;13.40;;;;;;;17.33;66.70;99895.92;129581;1280;114777;-65
2023/04/29 09:47:43;;;;;;;18.70;11.30;;;;;;;17.65;66.16;99900.58;129219;1266;128067;-67
2023/04/29 09:51:00;;;;;;;16.00;12.20;;;;;;;17.96;65.69;99897.97;129517;1258;115223;-65
2023/04/29 09:54:19;;;;;;;14.90;11.60;;;;;;;18.27;65.48;99896.93;129376;1261;115466;-63
2023/04/29 09:57:39;;;;;;;11.10;9.90;;;;;;;18.60;64.73;99897.05;129384;1264;115096;-65
2023/04/29 10:00:41;;;;;;;12.60;9.40;;;;;;;18.92;64.44;99896.20;129351;1263;114841;-69
2023/04/29 10:03:44;;;;;;;11.00;8.80;;;;;;;19.16;63.73;99898.70;129299;1264;115335;-64
2023/04/29 10:06:51;;;;;;;8.30;7.50;;;;;;;19.28;63.29;99895.34;129520;1280;114771;-66
2023/04/29 10:09:53;;;;;;;9.20;7.20;;;;;;;19.32;62.94;99898.70;129373;1260;114900;-66
2023/04/29 10:12:59;;;;;;;8.10;6.10;;;;;;;19.46;62.92;99902.70;129444;1273;114710;-63
2023/04/29 10:16:11;;;;;;;8.20;6.90;;;;;;;19.55;62.02;99899.64;129400;1261;114910;-65
2023/04/29 10:19:19;;;;;;;11.50;7.20;;;;;;;19.60;61.81;99903.73;129370;1262;128794;-64
2023/04/29 10:22:46;;;;;;;9.40;7.90;;;;;;;19.67;61.92;99905.09;129456;1264;116478;-64
2023/04/29 10:25:49;;;;;;;7.50;6.50;;;;;;;19.79;61.57;99901.60;129503;1266;114723;-66
2023/04/29 10:28:54;;;;;;;8.50;6.20;;;;;;;19.95;61.37;99899.16;129615;1261;114724;-64
2023/04/29 10:31:57;;;;;;;8.60;6.80;;;;;;;20.16;60.84;99899.37;129177;1263;114726;-66
2023/04/29 10:34:59;;;;;;;9.40;6.70;;;;;;;20.31;60.35;99897.95;129517;1261;114732;-66
2023/04/29 10:38:08;;;;;;;8.40;6.50;;;;;;;20.45;60.07;99899.31;129390;1264;114786;-65
2023/04/29 10:41:25;;;;;;;7.00;5.80;;;;;;;20.55;59.42;99892.73;129288;1264;115088;-64
2023/04/29 10:44:28;;;;;;;5.30;4.60;;;;;;;20.61;58.75;99890.83;129942;1264;115230;-64
2023/04/29 10:47:30;;;;;;;6.10;4.60;;;;;;;20.71;58.69;99888.44;129432;1264;114790;-66
2023/04/29 10:50:42;;;;;;;6.10;4.60;;;;;;;20.94;58.95;99886.93;129555;1261;114814;-66
2023/04/29 10:54:15;;;;;;;6.40;5.00;;;;;;;21.16;58.60;99883.41;129659;1257;116403;-64
2023/04/29 10:57:20;;;;;;;6.00;4.50;;;;;;;21.23;56.90;99877.66;129566;1262;114918;-64
2023/04/29 11:00:28;;;;;;;6.30;4.40;;;;;;;21.20;56.73;99875.06;129502;1264;114905;-65
2023/04/29 11:03:59;;;;;;;7.20;5.30;;;;;;;21.25;57.16;99872.93;129572;1273;114862;-64
2023/04/29 11:07:01;;;;;;;9.50;4.20;;;;;;;21.37;57.22;99872.81;129641;1264;128963;-66
2023/04/29 11:10:06;;;;;;;;;;;;;;;21.52;56.92;99873.67;129658;1262;114723;-64
2023/04/29 11:13:25;;;;;;;6.70;3.70;;;;;;;21.64;56.03;99873.90;129775;1260;114665;-66
2023/04/29 11:16:28;;;;;;;4.30;3.40;;;;;;;21.73;55.48;99873.02;129536;1277;114787;-68
2023/04/29 11:19:35;;;;;;;4.20;3.70;;;;;;;21.82;55.18;99871.52;129712;1279;114723;-66
2023/04/29 11:22:37;;;;;;;4.10;3.10;;;;;;;21.90;54.63;99869.73;129679;1279;128805;-63
2023/04/29 11:25:39;;;;;;;3.50;3.20;;;;;;;21.98;54.18;99870.89;129625;1261;114965;-65
2023/04/29 11:28:42;;;;;;;4.00;3.20;;;;;;;22.13;54.31;99865.86;129604;1258;114831;-66
2023/04/29 11:31:45;;;;;;;5.20;4.30;;;;;;;22.24;54.02;99867.33;129788;1263;114919;-65
2023/04/29 11:34:48;;;;;;;4.40;3.80;;;;;;;22.20;53.15;99868.06;129456;1264;114708;-65
2023/04/29 11:37:51;;;;;;;4.20;3.80;;;;;;;22.13;53.23;99868.67;129229;1271;114749;-66
2023/04/29 11:40:55;;;;;;;5.00;3.80;;;;;;;22.05;53.07;99870.53;129462;1264;114802;-65
2023/04/29 11:43:59;;;;;;;5.70;3.90;;;;;;;21.99;52.67;99871.85;129428;1264;115446;-64
2023/04/29 11:47:07;;;;;;;4.10;3.20;;;;;;;21.95;52.79;99873.74;129711;1262;115496;-69
2023/04/29 11:50:09;;;;;;;3.20;2.90;;;;;;;21.96;52.58;99870.62;129783;1261;114774;-65
2023/04/29 11:53:12;;;;;;;3.40;2.90;;;;;;;21.92;52.24;99867.16;129646;1280;115004;-66
2023/04/29 11:56:14;;;;;;;4.70;3.00;;;;;;;21.88;51.97;99865.85;129719;1280;114720;-67
2023/04/29 11:59:18;;;;;;;4.90;3.60;;;;;;;21.84;51.70;99862.59;129657;1280;115292;-62
2023/04/29 12:02:28;;;;;;;3.10;2.70;;;;;;;21.71;51.41;99863.16;129577;1261;115157;-63
2023/04/29 12:05:30;;;;;;;3.80;3.20;;;;;;;21.62;51.28;99861.69;129562;1261;114986;-64
2023/04/29 12:08:33;;;;;;;3.80;2.60;;;;;;;21.55;51.33;99865.19;129435;1261;114708;-68
2023/04/29 12:11:36;;;;;;;4.50;2.50;;;;;;;21.37;50.97;99866.24;129558;1261;114782;-68
2023/04/29 12:14:42;;;;;;;4.20;2.70;;;;;;;21.32;51.60;99863.85;129585;1277;114797;-64
2023/04/29 12:17:45;;;;;;;3.50;2.70;;;;;;;21.31;51.40;99862.50;129440;1279;114739;-66
2023/04/29 12:20:50;;;;;;;3.40;2.80;;;;;;;21.22;50.77;99859.94;129583;1261;114752;-67
2023/04/29 12:23:52;;;;;;;2.80;2.30;;;;;;;21.08;50.56;99859.52;129402;1261;115438;-67
2023/04/29 12:26:55;;;;;;;2.90;2.70;;;;;;;20.95;50.59;99852.48;129483;1280;114701;-67
2023/04/29 12:29:57;;;;;;;3.60;2.70;;;;;;;20.88;51.12;99852.67;129522;1257;114744;-66
2023/04/29 12:32:59;;;;;;;5.40;3.00;;;;;;;20.77;51.16;99855.23;129444;1280;114902;-68
2023/04/29 12:36:02;;;;;;;3.60;2.90;;;;;;;20.62;51.16;99858.84;129067;1280;115171;-68
2023/04/29 12:39:08;;;;;;;4.00;3.20;;;;;;;20.47;51.20;99862.11;129537;1261;114794;-65
2023/04/29 12:42:15;;;;;;;6.90;4.10;;;;;;;20.22;52.44;99873.38;129312;1280;114834;-65
2023/04/29 12:45:32;;;;;;;5.40;4.40;;;;;;;19.92;53.69;99871.38;129445;1261;114810;-66
2023/04/29 12:48:42;;;;;;;9.20;4.90;;;;;;;19.65;54.48;99866.13;129443;1274;128211;-66
2023/04/29 12:51:44;;;;;;;8.60;4.60;;;;;;;19.47;55.24;99861.15;129518;1274;115235;-65
2023/04/29 12:54:47;;;;;;;6.60;4.40;;;;;;;19.30;55.95;99859.66;129345;1277;114837;-65
2023/04/29 12:57:49;;;;;;;5.50;4.90;;;;;;;19.21;56.87;99859.89;129460;1263;114822;-65
2023/04/29 13:00:51;;;;;;;6.10;5.50;;;;;;;19.24;57.97;99861.96;129740;1258;115501;-64
2023/04/29 13:03:53;;;;;;;6.30;5.60;;;;;;;19.37;58.72;99864.16;129383;1258;114727;-64
2023/04/29 13:06:59;;;;;;;7.20;5.90;;;;;;;19.54;58.92;99863.14;129771;1262;115329;-65
2023/04/29 13:10:02;;;;;;;10.40;5.80;;;;;;;19.66;59.10;99863.70;129407;1256;128348;-63
2023/04/29 13:13:04;;;;;;;7.80;6.10;;;;;;;19.75;59.28;99862.13;129658;1261;114800;-64
2023/04/29 13:16:06;;;;;;;9.30;5.40;;;;;;;19.74;59.20;99858.59;129566;1258;115079;-65
2023/04/29 13:19:09;;;;;;;8.70;5.60;;;;;;;19.70;58.91;99856.92;129385;1257;114619;-65
2023/04/29 13:22:12;;;;;;;5.00;4.50;;;;;;;19.65;59.18;99856.35;129117;1261;368475;-64
2023/04/29 13:25:15;;;;;;;4.40;4.00;;;;;;;19.55;58.74;99851.89;129479;1280;114727;-65
2023/04/29 13:28:17;;;;;;;4.80;3.90;;;;;;;19.45;58.57;99855.86;129482;1257;114788;-66
2023/04/29 13:31:19;;;;;;;5.50;4.50;;;;;;;19.47;59.32;99852.75;129034;1258;128486;-67
2023/04/29 13:34:22;;;;;;;6.00;4.20;;;;;;;19.54;58.77;99848.66;129679;1258;114813;-66
2023/04/29 13:37:24;;;;;;;5.00;4.10;;;;;;;19.68;59.16;99851.91;129655;1274;114740;-66
2023/04/29 13:40:29;;;;;;;6.50;4.60;;;;;;;19.87;58.81;99846.70;129566;1280;115222;-68
2023/04/29 13:43:35;;;;;;;4.10;3.60;;;;;;;19.96;58.13;99841.34;129447;1261;114702;-67
2023/04/29 13:46:37;;;;;;;4.60;3.90;;;;;;;20.03;57.76;99841.33;129331;1280;115967;-67
2023/04/29 13:49:39;;;;;;;4.10;3.70;;;;;;;20.06;57.90;99839.23;129507;1261;114723;-67
2023/04/29 13:52:43;;;;;;;6.10;3.80;;;;;;;20.07;57.53;99838.96;129515;1280;114773;-66
2023/04/29 13:55:46;;;;;;;2.80;2.50;;;;;;;20.04;57.40;99837.40;129530;1261;114812;-67